High Peak, United Kingdom
Current Conditions -  °F | °C
As of 10:20 PM on Friday 31 Oct 2014 (Local Time) from EGCC Reporting Station
Clear Clear  
Wind Chill: 61°   Ceiling: Unl
Heat Index: 61°   Visibility: 6mi
Dew Point: 55°   Wind: 21mph
Humidity: 82%   Direction: 180°S
Pressure: 29.77"   Gusts: NA
Location:  53.38°N, 1.97°W
Report Text: EGCC 312220Z 18018KT 130V190 CAVOK 16/13 Q1008 TEMPO RA
Loading
Personal Weather Stations






























Interactive Weather Map
Tropical Storm Tracking
New forecast layout! Learn more

10-Day Weather Forecast

Advertisements
Track Severe Weather on mobile